createdAt,value
2023-02-25T00:02:04.308Z,100208.63
2023-02-25T00:04:06.339Z,100209.50
2023-02-25T00:06:10.343Z,100217.41
2023-02-25T00:08:11.792Z,100219.16
2023-02-25T00:10:14.715Z,100216.56
2023-02-25T00:12:16.255Z,100214.00
2023-02-25T00:14:17.716Z,100214.94
2023-02-25T00:16:20.983Z,100211.44
2023-02-25T00:18:22.678Z,100214.09
2023-02-25T00:20:24.133Z,100208.94
2023-02-25T00:22:25.670Z,100203.78
2023-02-25T00:24:27.170Z,100204.66
2023-02-25T00:26:28.624Z,100213.41
2023-02-25T00:28:30.124Z,100215.19
2023-02-25T00:30:32.980Z,100213.47
2023-02-25T00:32:34.476Z,100235.28
2023-02-25T00:34:36.148Z,100241.38
2023-02-25T00:36:37.959Z,100247.47
2023-02-25T00:38:39.713Z,100241.38
2023-02-25T00:40:41.247Z,100243.09
2023-02-25T00:42:43.103Z,100256.13
2023-02-25T00:44:50.415Z,100265.72
2023-02-25T00:46:51.893Z,100261.41
2023-02-25T00:48:53.719Z,100261.41
2023-02-25T00:50:55.198Z,100258.78
2023-02-25T00:52:56.661Z,100264.91
2023-02-25T00:54:58.127Z,100273.63
2023-02-25T00:56:59.593Z,100269.25
2023-02-25T00:59:01.150Z,100270.13
2023-02-25T01:01:03.137Z,100277.09
2023-02-25T01:03:04.605Z,100269.28
2023-02-25T01:05:06.196Z,100275.34
2023-02-25T01:07:07.898Z,100277.13
2023-02-25T01:09:13.873Z,100283.19
2023-02-25T01:11:21.033Z,100284.06
2023-02-25T01:13:22.586Z,100286.69
2023-02-25T01:15:24.054Z,100291.91
2023-02-25T01:17:25.568Z,100285.78
2023-02-25T01:19:27.586Z,100296.19
2023-02-25T01:21:40.325Z,100294.44
2023-02-25T01:23:41.787Z,100298.81
2023-02-25T01:25:43.226Z,100293.56
2023-02-25T01:27:44.726Z,100292.69
2023-02-25T01:29:46.190Z,100293.56
2023-02-25T01:31:51.758Z,100292.69
2023-02-25T01:33:53.632Z,100293.53
2023-02-25T01:35:55.148Z,100297.91
2023-02-25T01:37:56.610Z,100297.91
2023-02-25T01:39:58.163Z,100304.00
2023-02-25T01:42:03.437Z,100311.84
2023-02-25T01:44:14.908Z,100312.69
2023-02-25T01:46:16.413Z,100310.09
2023-02-25T01:48:20.629Z,100313.56
2023-02-25T01:50:25.445Z,100320.53
2023-02-25T01:52:26.894Z,100317.94
2023-02-25T01:54:28.885Z,100324.91
2023-02-25T01:56:31.087Z,100317.91
2023-02-25T01:58:34.396Z,100316.16
2023-02-25T02:00:37.942Z,100321.41
2023-02-25T02:02:39.944Z,100322.28
2023-02-25T02:04:43.569Z,100315.34
2023-02-25T02:06:47.869Z,100318.84
2023-02-25T02:09:15.698Z,100316.28
2023-02-25T02:11:17.724Z,100322.41
2023-02-25T02:13:20.151Z,100319.81
2023-02-25T02:15:21.720Z,100325.91
2023-02-25T02:17:32.377Z,100318.97
2023-02-25T02:19:52.106Z,100336.34
2023-02-25T02:22:17.646Z,100332.88
2023-02-25T02:24:39.939Z,100342.44
2023-02-25T02:26:52.077Z,100341.59
2023-02-25T02:29:30.719Z,100350.28
2023-02-25T02:31:45.397Z,100342.50
2023-02-25T02:33:59.470Z,100347.72
2023-02-25T02:36:29.372Z,100337.31
2023-02-25T02:38:42.753Z,100340.78
2023-02-25T02:41:01.197Z,100344.28
2023-02-25T02:43:33.475Z,100341.66
2023-02-25T02:45:49.308Z,100345.13
2023-02-25T02:48:03.889Z,100343.41
2023-02-25T02:50:12.698Z,100350.34
2023-02-25T02:52:16.940Z,100352.09
2023-02-25T02:54:19.211Z,100351.25
2023-02-25T02:56:24.329Z,100353.84
2023-02-25T02:58:30.319Z,100361.66
2023-02-25T03:00:37.968Z,100361.66
2023-02-25T03:02:43.193Z,100357.31
2023-02-25T03:04:48.679Z,100367.72
2023-02-25T03:06:55.526Z,100362.47
2023-02-25T03:09:04.062Z,100368.56
2023-02-25T03:11:05.897Z,100373.78
2023-02-25T03:13:07.568Z,100372.91
2023-02-25T03:15:09.442Z,100382.44
2023-02-25T03:17:15.366Z,100380.66
2023-02-25T03:19:29.912Z,100396.28
2023-02-25T03:21:38.791Z,100388.44
2023-02-25T03:23:41.824Z,100392.78
2023-02-25T03:25:50.432Z,100399.72
2023-02-25T03:27:55.412Z,100403.22
2023-02-25T03:30:12.580Z,100410.16
2023-02-25T03:32:17.358Z,100411.03
2023-02-25T03:34:23.526Z,100415.34
2023-02-25T03:36:31.333Z,100419.69
2023-02-25T03:38:37.616Z,100422.31
2023-02-25T03:40:41.673Z,100422.28
2023-02-25T03:42:58.819Z,100421.44
2023-02-25T03:45:06.027Z,100430.13
2023-02-25T03:47:10.855Z,100421.44
2023-02-25T03:49:19.132Z,100425.78
2023-02-25T03:51:27.127Z,100431.88
2023-02-25T03:53:30.126Z,100433.63
2023-02-25T03:55:31.853Z,100434.53
2023-02-25T03:57:37.859Z,100435.38
2023-02-25T03:59:39.320Z,100443.22
2023-02-25T04:01:42.749Z,100444.97
2023-02-25T04:03:44.684Z,100450.19
2023-02-25T04:05:46.162Z,100452.84
2023-02-25T04:07:47.963Z,100457.22
2023-02-25T04:09:49.418Z,100469.38
2023-02-25T04:11:50.885Z,100475.50
2023-02-25T04:13:52.563Z,100476.38
2023-02-25T04:15:54.110Z,100477.28
2023-02-25T04:17:55.628Z,100478.13
2023-02-25T04:19:57.245Z,100484.25
2023-02-25T04:22:00.464Z,100478.16
2023-02-25T04:24:03.306Z,100479.03
2023-02-25T04:26:04.936Z,100474.72
2023-02-25T04:28:07.608Z,100479.97
2023-02-25T04:30:09.797Z,100479.97
2023-02-25T04:32:12.128Z,100482.56
2023-02-25T04:34:13.739Z,100481.72
2023-02-25T04:36:30.312Z,100482.63
2023-02-25T04:38:31.780Z,100480.00
2023-02-25T04:40:33.400Z,100478.28
2023-02-25T04:42:34.874Z,100487.88
2023-02-25T04:44:36.453Z,100484.38
2023-02-25T04:46:41.348Z,100488.78
2023-02-25T04:48:42.819Z,100487.91
2023-02-25T04:50:44.294Z,100484.44
2023-02-25T04:52:45.969Z,100492.25
2023-02-25T04:54:47.476Z,100489.63
2023-02-25T04:56:49.416Z,100485.28
2023-02-25T04:58:51.197Z,100500.09
2023-02-25T05:00:53.314Z,100486.16
2023-02-25T05:02:54.793Z,100487.03
2023-02-25T05:04:56.290Z,100488.78
2023-02-25T05:06:57.817Z,100480.09
2023-02-25T05:08:59.396Z,100487.06
2023-02-25T05:11:01.755Z,100491.41
2023-02-25T05:13:03.253Z,100489.69
2023-02-25T05:15:05.564Z,100497.53
2023-02-25T05:17:07.095Z,100501.88
2023-02-25T05:19:08.578Z,100504.50
2023-02-25T05:21:14.460Z,100506.19
2023-02-25T05:23:15.906Z,100509.69
2023-02-25T05:25:17.506Z,100517.53
2023-02-25T05:27:19.353Z,100517.53
2023-02-25T05:29:20.907Z,100521.88
2023-02-25T05:31:24.715Z,100518.38
2023-02-25T05:33:27.201Z,100530.56
2023-02-25T05:35:28.752Z,100527.94
2023-02-25T05:37:31.748Z,100525.34
2023-02-25T05:39:33.311Z,100528.81
2023-02-25T05:41:34.821Z,100531.41
2023-02-25T05:43:37.628Z,100527.94
2023-02-25T05:45:39.212Z,100534.03
2023-02-25T05:47:40.741Z,100531.44
2023-02-25T05:49:42.830Z,100530.56
2023-02-25T05:51:44.336Z,100530.56
2023-02-25T05:53:48.022Z,100533.16
2023-02-25T05:55:50.281Z,100541.00
2023-02-25T05:57:51.729Z,100534.91
2023-02-25T05:59:53.232Z,100541.88
2023-02-25T06:01:54.761Z,100540.13
2023-02-25T06:03:58.528Z,100536.66
2023-02-25T06:06:00.915Z,100551.44
2023-02-25T06:08:02.424Z,100541.88
2023-02-25T06:10:04.124Z,100545.38
2023-02-25T06:12:05.955Z,100547.97
2023-02-25T06:14:07.466Z,100558.41
2023-02-25T06:16:09.010Z,100556.66
2023-02-25T06:18:10.522Z,100566.22
2023-02-25T06:20:12.548Z,100565.34
2023-02-25T06:22:14.259Z,100575.78
2023-02-25T06:24:16.317Z,100574.03
2023-02-25T06:26:18.713Z,100580.97
2023-02-25T06:28:20.217Z,100602.69
2023-02-25T06:30:21.704Z,100625.31
2023-02-25T06:32:23.294Z,100603.56
2023-02-25T06:34:25.548Z,100607.06
2023-02-25T06:36:27.330Z,100600.97
2023-02-25T06:38:28.867Z,100606.19
2023-02-25T06:40:30.392Z,100607.06
2023-02-25T06:42:31.868Z,100607.06
2023-02-25T06:44:33.317Z,100616.63
2023-02-25T06:46:34.867Z,100613.16
2023-02-25T06:48:36.538Z,100622.72
2023-02-25T06:50:41.559Z,100624.44
2023-02-25T06:52:43.359Z,100622.72
2023-02-25T06:54:45.036Z,100630.53
2023-02-25T06:56:46.595Z,100619.22
2023-02-25T06:58:48.415Z,100628.78
2023-02-25T07:00:49.935Z,100628.78
2023-02-25T07:02:51.468Z,100626.19
2023-02-25T07:04:54.693Z,100634.00
2023-02-25T07:06:56.299Z,100641.81
2023-02-25T07:08:57.759Z,100646.16
2023-02-25T07:11:18.518Z,100660.94
2023-02-25T07:13:20.039Z,100648.78
2023-02-25T07:15:21.791Z,100649.66
2023-02-25T07:17:23.267Z,100650.50
2023-02-25T07:19:24.732Z,100662.69
2023-02-25T07:21:29.325Z,100671.38
2023-02-25T07:23:30.820Z,100667.03
2023-02-25T07:25:32.617Z,100665.28
2023-02-25T07:27:34.164Z,100676.56
2023-02-25T07:29:35.650Z,100693.06
2023-02-25T07:31:37.262Z,100695.69
2023-02-25T07:33:39.028Z,100707.84
2023-02-25T07:35:40.505Z,100705.19
2023-02-25T07:37:41.982Z,100706.06
2023-02-25T07:39:43.480Z,100713.03
2023-02-25T07:41:44.990Z,100710.41
2023-02-25T07:43:46.473Z,100709.59
2023-02-25T07:45:50.349Z,100716.53
2023-02-25T07:47:54.932Z,100714.75
2023-02-25T07:49:56.462Z,100713.00
2023-02-25T07:51:57.968Z,100725.19
2023-02-25T07:54:00.575Z,100712.16
2023-02-25T07:56:02.170Z,100720.88
2023-02-25T07:58:05.329Z,100725.22
2023-02-25T08:00:10.362Z,100729.59
2023-02-25T08:02:12.678Z,100728.72
2023-02-25T08:04:14.212Z,100721.75
2023-02-25T08:06:15.714Z,100733.06
2023-02-25T08:08:17.355Z,100732.19
2023-02-25T08:10:18.989Z,100731.31
2023-02-25T08:12:20.501Z,100720.03
2023-02-25T08:14:22.074Z,100725.25
2023-02-25T08:16:23.746Z,100727.00
2023-02-25T08:18:25.247Z,100732.19
2023-02-25T08:20:27.084Z,100740.03
2023-02-25T08:22:28.595Z,100744.38
2023-02-25T08:24:30.276Z,100748.72
2023-02-25T08:26:31.741Z,100753.91
2023-02-25T08:28:36.961Z,100761.72
2023-02-25T08:30:38.685Z,100755.66
2023-02-25T08:32:41.948Z,100760.88
2023-02-25T08:34:44.023Z,100763.47
2023-02-25T08:36:45.759Z,100756.53
2023-02-25T08:38:47.287Z,100767.84
2023-02-25T08:40:48.805Z,100762.63
2023-02-25T08:42:50.324Z,100772.19
2023-02-25T08:44:51.779Z,100772.19
2023-02-25T08:46:53.336Z,100774.78
2023-02-25T08:48:55.414Z,100786.09
2023-02-25T08:50:56.905Z,100786.16
2023-02-25T08:52:58.410Z,100784.41
2023-02-25T08:55:02.014Z,100785.28
2023-02-25T08:57:03.630Z,100792.25
2023-02-25T08:59:06.077Z,100812.25
2023-02-25T09:01:12.990Z,100809.63
2023-02-25T09:03:14.613Z,100810.50
2023-02-25T09:05:16.186Z,100824.41
2023-02-25T09:07:17.737Z,100815.72
2023-02-25T09:09:20.431Z,100823.53
2023-02-25T09:11:22.789Z,100827.88
2023-02-25T09:13:24.599Z,100829.63
2023-02-25T09:15:26.124Z,100837.47
2023-02-25T09:17:27.611Z,100830.50
2023-02-25T09:19:29.108Z,100837.47
2023-02-25T09:21:30.669Z,100838.34
2023-02-25T09:23:32.214Z,100845.31
2023-02-25T09:25:33.716Z,100844.44
2023-02-25T09:27:35.232Z,100854.00
2023-02-25T09:29:39.063Z,100859.22
2023-02-25T09:31:40.758Z,100874.88
2023-02-25T09:33:43.130Z,100867.06
2023-02-25T09:35:45.246Z,100869.72
2023-02-25T09:37:46.737Z,100876.69
2023-02-25T09:39:48.254Z,100889.72
2023-02-25T09:42:13.841Z,100899.28
2023-02-25T09:44:26.997Z,100903.59
2023-02-25T09:46:30.423Z,100908.81
2023-02-25T09:48:35.709Z,100914.03
2023-02-25T09:50:42.577Z,100916.66
2023-02-25T09:53:20.645Z,100910.63
2023-02-25T09:55:30.875Z,100899.31
2023-02-25T09:57:37.754Z,100922.81
2023-02-25T09:59:39.344Z,100922.81
2023-02-25T10:01:56.954Z,100933.25
2023-02-25T10:04:08.419Z,100941.06
2023-02-25T10:06:14.362Z,100941.88
2023-02-25T10:08:39.003Z,100948.81
2023-02-25T10:11:30.462Z,100955.75
2023-02-25T10:13:47.025Z,100958.31
2023-02-25T10:15:54.748Z,100965.28
2023-02-25T10:18:26.956Z,100966.16
2023-02-25T10:20:43.662Z,100967.91
2023-02-25T10:23:19.538Z,100971.44
2023-02-25T10:25:26.793Z,100973.19
2023-02-25T10:29:40.076Z,100977.59
2023-02-25T10:31:46.707Z,100977.59
2023-02-25T10:33:51.022Z,100985.44
2023-02-25T10:36:11.705Z,100979.34
2023-02-25T10:38:13.172Z,100981.09
2023-02-25T10:40:17.997Z,100982.88
2023-02-25T10:42:19.561Z,100979.41
2023-02-25T10:44:21.488Z,100991.63
2023-02-25T10:46:33.480Z,100999.47
2023-02-25T10:48:35.602Z,100993.38
2023-02-25T10:50:45.345Z,100993.38
2023-02-25T10:53:11.675Z,100997.72
2023-02-25T10:55:26.016Z,100999.47
2023-02-25T10:57:35.108Z,100992.50
2023-02-25T10:59:39.496Z,101001.22
2023-02-25T11:01:42.477Z,100997.72
2023-02-25T11:04:06.537Z,101006.44
2023-02-25T11:06:13.844Z,101012.53
2023-02-25T11:08:31.687Z,101021.25
2023-02-25T11:10:34.326Z,101016.94
2023-02-25T11:12:43.658Z,101022.16
2023-02-25T11:14:45.274Z,101027.38
2023-02-25T11:16:46.856Z,101027.38
2023-02-25T11:18:54.473Z,101024.75
2023-02-25T11:21:08.951Z,101034.16
2023-02-25T11:23:21.117Z,101031.50
2023-02-25T11:25:43.702Z,101034.25
2023-02-25T11:27:54.108Z,101043.88
2023-02-25T11:30:02.532Z,101046.50
2023-02-25T11:32:14.828Z,101036.03
2023-02-25T11:34:22.642Z,101041.22
2023-02-25T11:36:29.645Z,101035.91
2023-02-25T11:38:41.280Z,101045.25
2023-02-25T11:40:44.913Z,101038.75
2023-02-25T11:43:17.077Z,101022.31
2023-02-25T11:45:18.637Z,101047.06
2023-02-25T11:47:28.296Z,101047.19
2023-02-25T11:49:42.593Z,101051.53
2023-02-25T11:52:22.780Z,101050.44
2023-02-25T11:54:39.626Z,101054.47
2023-02-25T11:56:48.641Z,101056.78
2023-02-25T11:59:02.385Z,101060.72
2023-02-25T12:01:19.342Z,101056.50
2023-02-25T12:03:39.823Z,101061.50
2023-02-25T12:05:46.089Z,101069.78
2023-02-25T12:08:14.088Z,101075.19
2023-02-25T12:10:21.724Z,101087.34
2023-02-25T12:12:54.279Z,101090.06
2023-02-25T12:15:11.102Z,101084.75
2023-02-25T12:17:34.483Z,101082.50
2023-02-25T12:19:51.191Z,101094.22
2023-02-25T12:22:13.032Z,101094.03
2023-02-25T12:24:26.397Z,101092.38
2023-02-25T12:26:40.557Z,101100.38
2023-02-25T12:28:57.838Z,101094.28
2023-02-25T12:31:36.959Z,101091.53
2023-02-25T12:33:57.257Z,101099.34
2023-02-25T12:36:08.173Z,101111.28
2023-02-25T12:38:39.045Z,101107.06
2023-02-25T12:41:02.406Z,101110.22
2023-02-25T12:43:18.909Z,101121.31
2023-02-25T12:45:36.732Z,101108.09
2023-02-25T12:47:57.705Z,101111.56
2023-02-25T12:50:20.719Z,101113.28
2023-02-25T12:52:39.497Z,101120.19
2023-02-25T12:54:43.638Z,101115.06
2023-02-25T12:57:27.243Z,101123.78
2023-02-25T12:59:37.320Z,101126.28
2023-02-25T13:02:15.844Z,101126.22
2023-02-25T13:04:31.513Z,101132.47
2023-02-25T13:06:35.617Z,101135.16
2023-02-25T13:08:42.978Z,101132.28
2023-02-25T13:10:47.603Z,101139.91
2023-02-25T13:13:04.447Z,101127.84
2023-02-25T13:15:30.615Z,101148.34
2023-02-25T13:18:05.827Z,101143.47
2023-02-25T13:20:32.177Z,101144.53
2023-02-25T13:22:51.769Z,101145.44
2023-02-25T13:24:59.578Z,101139.09
2023-02-25T13:27:19.828Z,101147.84
2023-02-25T13:30:02.930Z,101165.03
2023-02-25T13:32:10.521Z,101166.50
2023-02-25T13:34:27.157Z,101168.16
2023-02-25T13:36:49.941Z,101169.66
2023-02-25T13:39:19.650Z,101166.72
2023-02-25T13:42:15.746Z,101170.69
2023-02-25T13:44:35.851Z,101168.66
2023-02-25T13:46:50.978Z,101173.88
2023-02-25T13:49:15.881Z,101167.94
2023-02-25T13:51:44.090Z,101168.94
2023-02-25T13:53:52.282Z,101181.41
2023-02-25T13:56:15.033Z,101178.22
2023-02-25T13:58:34.486Z,101183.63
2023-02-25T14:00:54.161Z,101183.91
2023-02-25T14:03:49.521Z,101187.41
2023-02-25T14:06:03.363Z,101184.88
2023-02-25T14:08:16.429Z,101188.59
2023-02-25T14:10:44.880Z,101190.56
2023-02-25T14:13:31.108Z,101201.03
2023-02-25T14:15:56.893Z,101208.06
2023-02-25T14:18:20.208Z,101210.72
2023-02-25T14:20:56.570Z,101212.59
2023-02-25T14:23:08.973Z,101216.28
2023-02-25T14:25:22.197Z,101219.78
2023-02-25T14:27:53.723Z,101226.78
2023-02-25T14:30:30.231Z,101230.22
2023-02-25T14:32:31.725Z,101230.19
2023-02-25T14:35:10.264Z,101234.53
2023-02-25T14:37:30.730Z,101228.41
2023-02-25T14:40:00.700Z,101238.94
2023-02-25T14:42:28.788Z,101247.72
2023-02-25T14:44:50.512Z,101245.97
2023-02-25T14:46:59.653Z,101243.34
2023-02-25T14:49:15.980Z,101260.00
2023-02-25T14:51:23.677Z,101263.50
2023-02-25T14:53:42.130Z,101259.25
2023-02-25T14:55:52.829Z,101273.28
2023-02-25T14:58:35.919Z,101268.03
2023-02-25T15:00:37.802Z,101268.03
2023-02-25T15:02:58.370Z,101268.94
2023-02-25T15:05:31.744Z,101265.44
2023-02-25T15:08:03.887Z,101281.16
2023-02-25T15:10:17.904Z,101275.91
2023-02-25T15:12:37.864Z,101287.25
2023-02-25T15:15:02.343Z,101285.53
2023-02-25T15:17:06.456Z,101281.16
2023-02-25T15:19:37.921Z,101291.59
2023-02-25T15:21:48.399Z,101288.03
2023-02-25T15:23:51.347Z,101294.19
2023-02-25T15:26:25.089Z,101291.56
2023-02-25T15:28:29.312Z,101296.81
2023-02-25T15:30:58.854Z,101288.94
2023-02-25T15:33:00.357Z,101298.53
2023-02-25T15:35:04.831Z,101290.69
2023-02-25T15:37:23.532Z,101300.34
2023-02-25T15:39:47.245Z,101298.63
2023-02-25T15:42:02.260Z,101303.84
2023-02-25T15:44:12.747Z,101309.09
2023-02-25T15:46:35.006Z,101309.97
2023-02-25T15:48:39.022Z,101309.97
2023-02-25T15:50:43.382Z,101312.59
2023-02-25T15:52:54.012Z,101312.59
2023-02-25T15:55:18.900Z,101322.19
2023-02-25T15:57:23.046Z,101322.19
2023-02-25T15:59:43.423Z,101316.00
2023-02-25T16:01:46.117Z,101319.50
2023-02-25T16:03:48.210Z,101324.72
2023-02-25T16:05:49.855Z,101320.34
2023-02-25T16:08:04.919Z,101321.19
2023-02-25T16:10:21.749Z,101319.38
2023-02-25T16:12:24.483Z,101316.78
2023-02-25T16:14:31.558Z,101311.50
2023-02-25T16:16:35.548Z,101315.84
2023-02-25T16:18:50.143Z,101326.25
2023-02-25T16:20:59.010Z,101329.78
2023-02-25T16:23:00.850Z,101329.78
2023-02-25T16:25:05.255Z,101335.84
2023-02-25T16:27:32.921Z,101329.75
2023-02-25T16:30:02.560Z,101331.47
2023-02-25T16:32:36.603Z,101333.13
2023-02-25T16:35:25.909Z,101340.03
2023-02-25T16:37:39.245Z,101340.84
2023-02-25T16:39:40.843Z,101353.00
2023-02-25T16:41:42.777Z,101353.91
2023-02-25T16:43:45.814Z,101362.59
2023-02-25T16:45:59.945Z,101360.00
2023-02-25T16:48:07.595Z,101361.69
2023-02-25T16:50:15.919Z,101367.75
2023-02-25T16:52:23.773Z,101369.41
2023-02-25T16:54:31.259Z,101364.19
2023-02-25T16:56:33.458Z,101377.19
2023-02-25T16:58:34.956Z,101378.88
2023-02-25T17:00:36.622Z,101380.59
2023-02-25T17:02:47.226Z,101383.19
2023-02-25T17:04:51.619Z,101387.50
2023-02-25T17:07:13.836Z,101384.84
2023-02-25T17:09:26.332Z,101389.16
2023-02-25T17:11:28.055Z,101397.00
2023-02-25T17:13:35.453Z,101400.47
2023-02-25T17:15:37.874Z,101411.78
2023-02-25T17:17:42.645Z,101428.28
2023-02-25T17:19:44.207Z,101426.53
2023-02-25T17:21:53.542Z,101429.88
2023-02-25T17:23:56.713Z,101432.22
2023-02-25T17:25:59.472Z,101433.53
2023-02-25T17:28:01.262Z,101443.72
2023-02-25T17:30:03.412Z,101450.44
2023-02-25T17:32:23.525Z,101452.81
2023-02-25T17:34:35.459Z,101460.34
2023-02-25T17:36:39.745Z,101471.59
2023-02-25T17:38:44.159Z,101470.59
2023-02-25T17:40:46.545Z,101472.03
2023-02-25T17:42:48.450Z,101474.56
2023-02-25T17:44:49.969Z,101474.53
2023-02-25T17:46:53.906Z,101474.28
2023-02-25T17:49:02.546Z,101477.66
2023-02-25T17:51:07.783Z,101483.78
2023-02-25T17:53:34.832Z,101493.31
2023-02-25T17:55:36.417Z,101500.28
2023-02-25T17:57:42.262Z,101516.00
2023-02-25T17:59:56.796Z,101528.19
2023-02-25T18:02:00.848Z,101534.53
2023-02-25T18:04:06.164Z,101536.41
2023-02-25T18:06:39.264Z,101545.94
2023-02-25T18:08:54.558Z,101551.09
2023-02-25T18:11:01.900Z,101544.00
2023-02-25T18:13:04.972Z,101545.69
2023-02-25T18:15:16.763Z,101546.47
2023-02-25T18:17:33.589Z,101544.56
2023-02-25T18:19:45.993Z,101539.28
2023-02-25T18:21:47.754Z,101521.88
2023-02-25T18:23:53.398Z,101513.03
2023-02-25T18:26:33.666Z,101519.00
2023-02-25T18:28:35.193Z,101517.34
2023-02-25T18:30:36.759Z,101529.44
2023-02-25T18:32:39.337Z,101525.09
2023-02-25T18:34:40.846Z,101535.44
2023-02-25T18:36:44.217Z,101544.09
2023-02-25T18:38:45.721Z,101545.78
2023-02-25T18:40:48.801Z,101556.88
2023-02-25T18:42:50.309Z,101558.47
2023-02-25T18:44:52.129Z,101558.38
2023-02-25T18:46:53.571Z,101562.59
2023-02-25T18:48:55.011Z,101566.88
2023-02-25T18:50:58.491Z,101564.94
2023-02-25T18:53:01.022Z,101557.91
2023-02-25T18:55:02.495Z,101567.34
2023-02-25T18:57:04.224Z,101564.59
2023-02-25T18:59:05.851Z,101566.06
2023-02-25T19:01:08.379Z,101565.91
2023-02-25T19:03:15.773Z,101563.09
2023-02-25T19:05:19.432Z,101560.31
2023-02-25T19:07:23.818Z,101556.75
2023-02-25T19:09:25.304Z,101566.09
2023-02-25T19:11:33.262Z,101567.75
2023-02-25T19:13:40.506Z,101570.34
2023-02-25T19:15:42.141Z,101580.56
2023-02-25T19:17:43.637Z,101578.84
2023-02-25T19:19:46.404Z,101581.38
2023-02-25T19:21:47.933Z,101582.19
2023-02-25T19:23:51.723Z,101576.00
2023-02-25T19:25:59.911Z,101577.84
2023-02-25T19:28:02.043Z,101576.00
2023-02-25T19:30:03.818Z,101583.81
2023-02-25T19:32:05.378Z,101577.59
2023-02-25T19:34:06.901Z,101584.22
2023-02-25T19:36:08.772Z,101584.91
2023-02-25T19:38:19.975Z,101586.47
2023-02-25T19:40:21.960Z,101591.66
2023-02-25T19:42:23.550Z,101593.25
2023-02-25T19:44:25.018Z,101604.63
2023-02-25T19:46:26.905Z,101598.63
2023-02-25T19:48:28.696Z,101599.44
2023-02-25T19:50:34.641Z,101596.94
2023-02-25T19:52:36.392Z,101598.75
2023-02-25T19:54:37.953Z,101604.78
2023-02-25T19:56:39.430Z,101597.63
2023-02-25T19:58:40.903Z,101603.78
2023-02-25T20:00:45.976Z,101607.41
2023-02-25T20:02:47.614Z,101610.91
2023-02-25T20:04:49.331Z,101615.22
2023-02-25T20:06:50.869Z,101622.97
2023-02-25T20:08:52.574Z,101620.34
2023-02-25T20:10:54.038Z,101630.63
2023-02-25T20:12:55.842Z,101637.56
2023-02-25T20:14:57.305Z,101645.38
2023-02-25T20:17:00.850Z,101641.16
2023-02-25T20:19:02.460Z,101647.31
2023-02-25T20:21:04.836Z,101646.59
2023-02-25T20:23:06.907Z,101645.94
2023-02-25T20:25:10.072Z,101644.28
2023-02-25T20:27:11.534Z,101647.06
2023-02-25T20:29:13.077Z,101644.53
2023-02-25T20:31:17.510Z,101649.72
2023-02-25T20:33:19.055Z,101647.22
2023-02-25T20:35:21.756Z,101644.69
2023-02-25T20:37:31.284Z,101648.22
2023-02-25T20:39:38.874Z,101650.00
2023-02-25T20:41:42.123Z,101654.44
2023-02-25T20:43:43.691Z,101647.53
2023-02-25T20:45:45.418Z,101656.97
2023-02-25T20:47:47.112Z,101644.88
2023-02-25T20:49:49.343Z,101652.59
2023-02-25T20:51:51.444Z,101659.63
2023-02-25T20:53:53.322Z,101657.88
2023-02-25T20:55:56.823Z,101650.88
2023-02-25T20:57:58.355Z,101657.88
2023-02-25T21:00:01.086Z,101665.66
2023-02-25T21:02:02.588Z,101670.03
2023-02-25T21:04:04.074Z,101669.13
2023-02-25T21:06:06.056Z,101673.44
2023-02-25T21:08:07.559Z,101683.84
2023-02-25T21:10:10.393Z,101673.44
2023-02-25T21:12:11.981Z,101677.75
2023-02-25T21:14:13.463Z,101678.56
2023-02-25T21:16:16.593Z,101679.41
2023-02-25T21:18:18.149Z,101678.53
2023-02-25T21:20:19.645Z,101690.59
2023-02-25T21:22:21.805Z,101692.28
2023-02-25T21:24:23.719Z,101693.97
2023-02-25T21:26:25.323Z,101688.69
2023-02-25T21:28:27.740Z,101699.06
2023-02-25T21:30:29.272Z,101698.13
2023-02-25T21:32:30.902Z,101703.25
2023-02-25T21:34:32.372Z,101712.72
2023-02-25T21:36:34.437Z,101712.69
2023-02-25T21:38:37.057Z,101718.72
2023-02-25T21:40:38.577Z,101719.56
2023-02-25T21:42:40.078Z,101720.34
2023-02-25T21:44:41.763Z,101719.53
2023-02-25T21:46:43.233Z,101728.19
2023-02-25T21:48:47.334Z,101719.44
2023-02-25T21:50:48.919Z,101721.09
2023-02-25T21:52:51.118Z,101717.59
2023-02-25T21:54:53.965Z,101724.50
2023-02-25T21:56:55.500Z,101726.22
2023-02-25T21:58:59.746Z,101729.66
2023-02-25T22:01:11.494Z,101730.47
2023-02-25T22:03:12.988Z,101729.56
2023-02-25T22:05:15.904Z,101724.38
2023-02-25T22:07:17.962Z,101729.47
2023-02-25T22:09:19.990Z,101728.56
2023-02-25T22:11:31.028Z,101722.47
2023-02-25T22:13:34.470Z,101731.03
2023-02-25T22:15:35.986Z,101735.34
2023-02-25T22:17:38.411Z,101745.69
2023-02-25T22:19:39.859Z,101732.56
2023-02-25T22:21:41.372Z,101736.84
2023-02-25T22:23:43.583Z,101743.69
2023-02-25T22:25:45.056Z,101744.53
2023-02-25T22:27:46.567Z,101740.19
2023-02-25T22:29:48.041Z,101751.44
2023-02-25T22:31:49.728Z,101746.19
2023-02-25T22:33:52.452Z,101752.22
2023-02-25T22:36:02.014Z,101755.69
2023-02-25T22:38:03.464Z,101758.25
2023-02-25T22:40:05.486Z,101753.00
2023-02-25T22:42:07.075Z,101764.28
2023-02-25T22:44:08.600Z,101760.75
2023-02-25T22:46:16.556Z,101764.19
2023-02-25T22:48:18.111Z,101775.34
2023-02-25T22:50:19.572Z,101777.06
2023-02-25T22:52:21.050Z,101776.94
2023-02-25T22:54:22.589Z,101781.22
2023-02-25T22:56:24.772Z,101774.19
2023-02-25T22:58:26.416Z,101779.34
2023-02-25T23:00:36.821Z,101791.44
2023-02-25T23:02:38.394Z,101794.84
2023-02-25T23:04:39.912Z,101797.34
2023-02-25T23:06:44.493Z,101799.94
2023-02-25T23:08:47.454Z,101804.22
2023-02-25T23:10:49.404Z,101810.22
2023-02-25T23:12:51.057Z,101804.16
2023-02-25T23:14:52.523Z,101812.69
2023-02-25T23:16:53.971Z,101810.88
2023-02-25T23:19:00.376Z,101818.66
2023-02-25T23:21:05.647Z,101812.53
2023-02-25T23:23:09.435Z,101810.72
2023-02-25T23:25:10.944Z,101818.41
2023-02-25T23:27:12.471Z,101821.91
2023-02-25T23:29:14.058Z,101832.22
2023-02-25T23:31:24.145Z,101822.69
2023-02-25T23:33:26.017Z,101830.41
2023-02-25T23:35:27.502Z,101830.41
2023-02-25T23:37:31.065Z,101838.13
2023-02-25T23:39:32.589Z,101832.91
2023-02-25T23:41:35.838Z,101838.09
2023-02-25T23:43:37.319Z,101848.47
2023-02-25T23:45:38.864Z,101843.28
2023-02-25T23:47:42.822Z,101843.28
2023-02-25T23:49:44.582Z,101851.94
2023-02-25T23:51:47.699Z,101860.59
2023-02-25T23:53:55.614Z,101865.72
2023-02-25T23:55:57.084Z,101866.50
2023-02-25T23:57:58.733Z,101869.09
